Time;durP1;ratioP1;P1;durP2;ratioP2;P2;SDS_P1;SDS_P2;PMS_P1;PMS_P2;Temp;Humidity;BMP_temperature;BMP_pressure;BME280_temperature;BME280_humidity;BME280_pressure;Samples;Min_cycle;Max_cycle;Signal;HPM_P1;HPM_P2
2020/12/29 00:01:36;;;;;;;6.35;4.38;;;;;11.00;97800.00;;;;5059060;28;20203;-78
2020/12/29 00:04:04;;;;;;;6.10;3.67;;;;;11.00;97793.00;;;;5065159;28;20676;-78
2020/12/29 00:06:31;;;;;;;5.57;4.20;;;;;11.00;97794.00;;;;5060781;28;20200;-78
2020/12/29 00:08:57;;;;;;;6.35;4.72;;;;;11.00;97799.00;;;;5049296;28;20223;-78
2020/12/29 00:11:25;;;;;;;6.07;4.57;;;;;11.00;97796.00;;;;5059761;28;20225;-78
2020/12/29 00:13:52;;;;;;;6.90;5.03;;;;;11.00;97805.00;;;;5048353;28;20250;-78
2020/12/29 00:16:19;;;;;;;6.55;4.43;;;;;11.00;97798.00;;;;5052272;28;20630;-78
2020/12/29 00:18:46;;;;;;;7.13;4.65;;;;;11.00;97805.00;;;;5048363;28;20204;-78
2020/12/29 00:21:20;;;;;;;6.65;4.82;;;;;10.90;97808.00;;;;5058956;28;20202;-78
2020/12/29 00:23:47;;;;;;;6.15;4.47;;;;;11.00;97814.00;;;;5067038;28;20676;-78
2020/12/29 00:26:14;;;;;;;6.18;4.55;;;;;11.00;97811.00;;;;5060259;28;20579;-78
2020/12/29 00:28:42;;;;;;;10.20;5.70;;;;;11.00;97815.00;;;;5068324;28;20738;-78
2020/12/29 00:31:09;;;;;;;7.43;4.80;;;;;11.00;97817.00;;;;5056289;28;20215;-78
2020/12/29 00:33:36;;;;;;;7.40;4.65;;;;;11.00;97820.00;;;;5055464;28;20241;-78
2020/12/29 00:36:05;;;;;;;6.50;5.00;;;;;11.00;97818.00;;;;5054683;28;20219;-78
2020/12/29 00:38:31;;;;;;;7.43;5.00;;;;;11.00;97805.00;;;;5054168;28;20203;-77
2020/12/29 00:40:58;;;;;;;6.70;4.35;;;;;11.00;97808.00;;;;5066578;28;20206;-78
2020/12/29 00:43:25;;;;;;;7.45;4.78;;;;;11.00;97815.00;;;;5068264;28;20327;-77
2020/12/29 00:45:52;;;;;;;9.55;5.45;;;;;11.00;97809.00;;;;5064330;28;20195;-77
2020/12/29 00:48:19;;;;;;;7.15;5.13;;;;;11.00;97819.00;;;;5064385;28;20617;-78
2020/12/29 00:50:46;;;;;;;6.68;4.82;;;;;11.00;97822.00;;;;5050222;28;20223;-77
2020/12/29 00:53:13;;;;;;;6.22;4.40;;;;;11.00;97821.00;;;;5061012;28;20206;-78
2020/12/29 00:55:39;;;;;;;7.03;5.28;;;;;11.00;97818.00;;;;5066657;28;20195;-78
2020/12/29 00:58:06;;;;;;;6.78;4.57;;;;;11.00;97823.00;;;;5047860;28;20219;-77
2020/12/29 01:00:33;;;;;;;6.25;4.55;;;;;11.00;97831.00;;;;5060445;28;20561;-78
2020/12/29 01:03:01;;;;;;;8.02;5.28;;;;;11.00;97828.00;;;;5065690;28;20199;-78
2020/12/29 01:05:27;;;;;;;6.75;4.65;;;;;11.00;97825.00;;;;5068377;28;20195;-77
2020/12/29 01:07:54;;;;;;;7.95;5.45;;;;;11.00;97825.00;;;;5065121;28;20202;-78
2020/12/29 01:10:21;;;;;;;7.68;5.03;;;;;11.00;97833.00;;;;5067841;28;20222;-78
2020/12/29 01:12:47;;;;;;;8.93;5.32;;;;;11.00;97828.00;;;;5056939;28;20752;-78
2020/12/29 01:15:14;;;;;;;7.97;5.05;;;;;11.00;97830.00;;;;5051277;28;20203;-78
2020/12/29 01:17:41;;;;;;;8.32;5.53;;;;;11.00;97834.00;;;;5047119;28;20658;-78
2020/12/29 01:20:08;;;;;;;8.30;5.35;;;;;11.00;97840.00;;;;5051317;28;20620;-78
2020/12/29 01:22:35;;;;;;;7.88;5.45;;;;;11.00;97846.00;;;;5054923;28;20249;-78
2020/12/29 01:25:02;;;;;;;9.20;5.60;;;;;11.00;97845.00;;;;5047798;28;20204;-78
2020/12/29 01:27:29;;;;;;;8.43;5.90;;;;;11.00;97852.00;;;;5050025;28;20578;-77
2020/12/29 01:29:55;;;;;;;8.63;5.40;;;;;11.00;97857.00;;;;5058181;28;20235;-77
2020/12/29 01:32:22;;;;;;;7.85;4.93;;;;;11.00;97851.00;;;;5055624;28;20206;-78
2020/12/29 01:34:49;;;;;;;8.75;5.63;;;;;11.00;97852.00;;;;5047752;28;20204;-78
2020/12/29 01:37:18;;;;;;;8.88;5.32;;;;;11.00;97861.00;;;;5047832;28;20253;-78
2020/12/29 01:39:44;;;;;;;10.52;6.18;;;;;11.00;97861.00;;;;5047118;28;20636;-78
2020/12/29 01:42:11;;;;;;;8.77;4.88;;;;;11.00;97856.00;;;;5059892;28;20206;-78
2020/12/29 01:44:38;;;;;;;8.45;5.97;;;;;11.00;97862.00;;;;5066215;28;20574;-77
2020/12/29 01:47:05;;;;;;;6.50;4.97;;;;;11.00;97870.00;;;;5057913;28;20204;-78
2020/12/29 01:49:32;;;;;;;8.38;5.85;;;;;11.00;97870.00;;;;5058929;28;20195;-78
2020/12/29 01:51:58;;;;;;;7.40;5.18;;;;;11.00;97866.00;;;;5064266;28;20260;-78
2020/12/29 01:54:27;;;;;;;7.95;5.80;;;;;11.00;97865.00;;;;5064883;28;20218;-77
2020/12/29 01:56:53;;;;;;;9.88;6.20;;;;;11.00;97868.00;;;;5047441;28;20254;-78
2020/12/29 01:59:20;;;;;;;7.95;5.63;;;;;11.00;97871.00;;;;5053542;28;20276;-77
2020/12/29 02:01:47;;;;;;;8.50;6.07;;;;;11.00;97870.00;;;;5057822;28;20625;-78
2020/12/29 02:04:14;;;;;;;7.93;5.88;;;;;11.00;97869.00;;;;5058144;28;20208;-78
2020/12/29 02:06:41;;;;;;;10.18;6.65;;;;;11.00;97864.00;;;;5061909;28;20202;-78
2020/12/29 02:09:09;;;;;;;9.13;5.72;;;;;11.00;97870.00;;;;5070289;28;20284;-78
2020/12/29 02:11:37;;;;;;;8.65;6.00;;;;;11.00;97866.00;;;;5067365;28;20237;-78
2020/12/29 02:14:05;;;;;;;8.18;5.80;;;;;11.00;97880.00;;;;5069982;28;20214;-78
2020/12/29 02:16:36;;;;;;;7.82;5.85;;;;;10.90;97880.00;;;;5069317;28;20197;-78
2020/12/29 02:19:04;;;;;;;7.93;5.68;;;;;11.00;97885.00;;;;5069796;28;20191;-78
2020/12/29 02:21:33;;;;;;;9.27;5.95;;;;;10.90;97891.00;;;;5060559;28;20648;-77
2020/12/29 02:24:01;;;;;;;8.55;5.50;;;;;11.00;97882.00;;;;5069830;28;20198;-77
2020/12/29 02:26:29;;;;;;;7.97;5.68;;;;;11.00;97887.00;;;;5062936;28;20614;-77
2020/12/29 02:28:58;;;;;;;9.70;6.65;;;;;10.90;97894.00;;;;5057207;28;20603;-77
2020/12/29 02:31:25;;;;;;;9.07;6.03;;;;;11.00;97890.00;;;;5069328;28;20341;-77
2020/12/29 02:33:52;;;;;;;11.27;6.65;;;;;11.00;97898.00;;;;5065698;28;20184;-78
2020/12/29 02:36:19;;;;;;;8.10;5.90;;;;;11.00;97892.00;;;;5050628;28;20206;-77
2020/12/29 02:38:46;;;;;;;7.13;5.10;;;;;11.00;97894.00;;;;5061175;28;20234;-77
2020/12/29 02:41:13;;;;;;;9.20;5.78;;;;;11.00;97896.00;;;;5054321;28;20194;-77
2020/12/29 02:43:40;;;;;;;9.13;5.95;;;;;11.00;97896.00;;;;5066627;28;20583;-77
2020/12/29 02:46:07;;;;;;;9.05;6.53;;;;;11.00;97903.00;;;;5065697;28;20939;-77
2020/12/29 02:48:34;;;;;;;9.77;5.75;;;;;11.00;97900.00;;;;5055456;28;20207;-77
2020/12/29 02:51:00;;;;;;;8.13;5.32;;;;;11.00;97895.00;;;;5068939;28;20219;-77
2020/12/29 02:53:27;;;;;;;9.10;6.22;;;;;11.00;97900.00;;;;5052440;28;20207;-77
2020/12/29 02:55:54;;;;;;;10.85;7.10;;;;;11.00;97894.00;;;;5051940;28;20655;-77
2020/12/29 02:58:21;;;;;;;8.65;5.70;;;;;10.90;97897.00;;;;5050780;28;20232;-77
2020/12/29 03:00:48;;;;;;;8.65;6.53;;;;;10.90;97902.00;;;;5062518;28;20199;-78
2020/12/29 03:03:15;;;;;;;10.70;6.50;;;;;10.90;97905.00;;;;5066034;28;20203;-77
2020/12/29 03:05:41;;;;;;;7.95;6.13;;;;;10.90;97907.00;;;;5057387;28;20226;-77
2020/12/29 03:08:09;;;;;;;10.80;6.43;;;;;10.90;97910.00;;;;5050068;28;20249;-77
2020/12/29 03:10:36;;;;;;;8.23;5.75;;;;;10.90;97912.00;;;;5050342;28;20281;-77
2020/12/29 03:13:03;;;;;;;11.02;6.63;;;;;10.90;97915.00;;;;5067283;28;20207;-77
2020/12/29 03:15:31;;;;;;;8.57;6.38;;;;;10.90;97918.00;;;;5052679;28;20212;-76
2020/12/29 03:17:58;;;;;;;10.07;5.68;;;;;10.90;97917.00;;;;5058339;28;20199;-76
2020/12/29 03:20:24;;;;;;;9.05;6.10;;;;;10.90;97920.00;;;;5050476;28;20580;-76
2020/12/29 03:22:51;;;;;;;8.70;6.20;;;;;11.00;97925.00;;;;5054384;28;20206;-76
2020/12/29 03:25:18;;;;;;;11.25;6.97;;;;;10.90;97921.00;;;;5069628;28;20203;-76
2020/12/29 03:27:44;;;;;;;9.05;5.40;;;;;10.90;97923.00;;;;5053132;28;20241;-77
2020/12/29 03:30:11;;;;;;;9.70;6.30;;;;;10.90;97933.00;;;;5054954;28;20227;-77
2020/12/29 03:32:39;;;;;;;9.70;6.03;;;;;10.90;97932.00;;;;5057246;28;20595;-77
2020/12/29 03:35:05;;;;;;;10.65;6.30;;;;;11.00;97932.00;;;;5049322;28;20233;-76
2020/12/29 03:37:32;;;;;;;8.93;5.93;;;;;11.00;97942.00;;;;5054279;28;20293;-77
2020/12/29 03:39:59;;;;;;;9.75;6.53;;;;;11.00;97943.00;;;;5066879;28;20284;-76
2020/12/29 03:42:25;;;;;;;10.52;6.20;;;;;11.00;97951.00;;;;5064416;28;20195;-76
2020/12/29 03:44:52;;;;;;;11.18;6.72;;;;;11.00;97945.00;;;;5067656;28;20209;-76
2020/12/29 03:47:19;;;;;;;9.73;6.07;;;;;11.00;97951.00;;;;5066866;28;20206;-76
2020/12/29 03:49:47;;;;;;;11.00;7.28;;;;;11.00;97953.00;;;;5052965;28;20200;-77
2020/12/29 03:52:13;;;;;;;9.48;6.25;;;;;11.00;97964.00;;;;5050098;28;20245;-76
2020/12/29 03:54:40;;;;;;;11.30;7.50;;;;;10.90;97965.00;;;;5048470;28;20711;-76
2020/12/29 03:57:07;;;;;;;9.60;6.25;;;;;10.90;97959.00;;;;5049806;28;20207;-77
2020/12/29 03:59:33;;;;;;;9.73;6.70;;;;;10.90;97960.00;;;;5061960;28;20272;-76
2020/12/29 04:02:00;;;;;;;9.15;6.53;;;;;10.90;97963.00;;;;5049794;28;20218;-77
2020/12/29 04:04:27;;;;;;;10.65;6.53;;;;;10.90;97968.00;;;;5060049;28;20195;-77
2020/12/29 04:06:54;;;;;;;9.88;6.75;;;;;10.90;97978.00;;;;5068026;28;20669;-76
2020/12/29 04:09:29;;;;;;;10.55;6.63;;;;;10.90;97981.00;;;;5067628;28;20219;-77
2020/12/29 04:11:56;;;;;;;11.82;6.15;;;;;10.90;97982.00;;;;5067498;28;20606;-76
2020/12/29 04:14:23;;;;;;;9.35;6.20;;;;;10.90;97984.00;;;;5052780;28;20195;-76
2020/12/29 04:16:50;;;;;;;8.43;5.65;;;;;10.90;97989.00;;;;5048999;28;20592;-76
2020/12/29 04:19:17;;;;;;;10.93;6.63;;;;;11.00;97993.00;;;;5051954;28;20211;-77
2020/12/29 04:21:44;;;;;;;10.18;6.15;;;;;11.00;97994.00;;;;5052425;28;20204;-76
2020/12/29 04:24:12;;;;;;;12.68;7.45;;;;;11.00;97990.00;;;;5048432;28;20188;-76
2020/12/29 04:26:38;;;;;;;7.97;5.95;;;;;11.00;97994.00;;;;5056377;28;20198;-77
2020/12/29 04:29:05;;;;;;;8.75;6.25;;;;;11.00;97994.00;;;;5068216;28;20195;-77
2020/12/29 04:31:32;;;;;;;7.90;5.65;;;;;11.00;97998.00;;;;5056440;28;20227;-77
2020/12/29 04:33:59;;;;;;;12.38;6.63;;;;;11.00;98004.00;;;;5048168;28;20214;-76
2020/12/29 04:36:25;;;;;;;10.55;7.10;;;;;11.00;98002.00;;;;5052414;28;21093;-76
2020/12/29 04:38:52;;;;;;;9.43;6.18;;;;;11.00;98004.00;;;;5057138;28;20617;-76
2020/12/29 04:41:20;;;;;;;9.98;6.43;;;;;11.00;98008.00;;;;5048118;28;20235;-77
2020/12/29 04:43:47;;;;;;;9.02;6.53;;;;;11.00;98012.00;;;;5052852;28;20195;-77
2020/12/29 04:46:15;;;;;;;9.48;5.88;;;;;11.00;98009.00;;;;5068398;28;20206;-76
2020/12/29 04:48:41;;;;;;;9.52;6.20;;;;;11.00;98015.00;;;;5065862;28;20928;-77
2020/12/29 04:51:09;;;;;;;9.52;6.78;;;;;11.00;98028.00;;;;5067893;28;20227;-77
2020/12/29 04:53:37;;;;;;;10.98;7.07;;;;;11.00;98017.00;;;;5060709;28;20207;-77
2020/12/29 04:56:08;;;;;;;10.68;6.72;;;;;11.00;98022.00;;;;5064591;28;20202;-77
2020/12/29 04:58:37;;;;;;;9.48;6.13;;;;;11.00;98017.00;;;;5067088;28;20230;-77
2020/12/29 05:01:06;;;;;;;10.27;6.65;;;;;11.00;98024.00;;;;5065342;28;20564;-77
2020/12/29 05:03:44;;;;;;;10.77;7.00;;;;;11.00;98027.00;;;;5061183;28;20669;-77
2020/12/29 05:06:12;;;;;;;10.73;6.70;;;;;11.00;98036.00;;;;5053561;28;20199;-77
2020/12/29 05:08:43;;;;;;;8.82;6.30;;;;;11.00;98036.00;;;;5060321;28;20760;-77
2020/12/29 05:11:10;;;;;;;9.35;5.85;;;;;11.00;98043.00;;;;5053580;28;20247;-77
2020/12/29 05:13:37;;;;;;;10.73;6.15;;;;;11.00;98041.00;;;;5050888;28;20198;-77
2020/12/29 05:16:04;;;;;;;11.55;7.15;;;;;11.00;98047.00;;;;5058603;28;20196;-77
2020/12/29 05:18:31;;;;;;;11.13;6.70;;;;;11.00;98046.00;;;;5056971;28;20618;-77
2020/12/29 05:20:58;;;;;;;9.60;6.38;;;;;10.90;98047.00;;;;5066187;28;20676;-77
2020/12/29 05:23:24;;;;;;;9.18;6.70;;;;;10.90;98056.00;;;;5068399;28;20202;-78
2020/12/29 05:25:53;;;;;;;10.07;6.82;;;;;10.90;98061.00;;;;5066281;28;20195;-78
2020/12/29 05:28:19;;;;;;;11.75;7.32;;;;;11.00;98062.00;;;;5063635;28;20233;-77
2020/12/29 05:30:53;;;;;;;11.40;7.22;;;;;10.90;98065.00;;;;5066301;28;20226;-77
2020/12/29 05:33:20;;;;;;;10.18;6.68;;;;;10.90;98062.00;;;;5065378;28;20726;-77
2020/12/29 05:35:50;;;;;;;11.07;7.30;;;;;10.90;98068.00;;;;5068481;28;20201;-77
2020/12/29 05:38:17;;;;;;;11.13;6.75;;;;;10.90;98067.00;;;;5060798;28;20240;-77
2020/12/29 05:40:46;;;;;;;9.57;6.35;;;;;10.90;98071.00;;;;5062964;28;20202;-77
2020/12/29 05:43:13;;;;;;;10.98;6.90;;;;;10.90;98072.00;;;;5051792;28;20293;-77
2020/12/29 05:45:40;;;;;;;11.52;6.95;;;;;10.90;98071.00;;;;5062136;28;20566;-78
2020/12/29 05:48:08;;;;;;;10.65;6.82;;;;;10.90;98075.00;;;;5068469;28;20252;-78
2020/12/29 05:50:37;;;;;;;11.50;6.65;;;;;10.90;98072.00;;;;5068918;28;20222;-78
2020/12/29 05:53:06;;;;;;;10.25;6.43;;;;;10.90;98084.00;;;;5065814;28;20191;-78
2020/12/29 05:55:33;;;;;;;9.73;6.63;;;;;10.90;98083.00;;;;5061017;28;20640;-77
2020/12/29 05:58:08;;;;;;;9.88;6.05;;;;;10.90;98089.00;;;;5061817;28;20203;-78
2020/12/29 06:00:35;;;;;;;9.95;6.70;;;;;10.90;98081.00;;;;5068649;28;20191;-77
2020/12/29 06:03:04;;;;;;;11.10;7.05;;;;;10.90;98090.00;;;;5053622;28;20203;-77
2020/12/29 06:05:33;;;;;;;10.15;6.13;;;;;10.90;98084.00;;;;5054401;28;20202;-78
2020/12/29 06:08:01;;;;;;;9.70;6.32;;;;;10.90;98089.00;;;;5068926;28;20195;-77
2020/12/29 06:10:30;;;;;;;12.07;7.47;;;;;10.90;98092.00;;;;5068391;28;20226;-78
2020/12/29 06:12:59;;;;;;;10.32;6.55;;;;;10.90;98097.00;;;;5052852;28;20187;-78
2020/12/29 06:15:27;;;;;;;10.25;6.47;;;;;10.90;98101.00;;;;5064688;28;20199;-78
2020/12/29 06:17:58;;;;;;;12.40;7.03;;;;;10.90;98102.00;;;;5050324;28;20220;-77
2020/12/29 06:20:35;;;;;;;9.82;6.05;;;;;10.80;98108.00;;;;5070302;28;20202;-78
2020/12/29 06:23:04;;;;;;;11.43;6.32;;;;;10.80;98115.00;;;;5071132;28;20209;-78
2020/12/29 06:25:33;;;;;;;9.13;5.38;;;;;10.80;98119.00;;;;5066868;28;22927;-78
2020/12/29 06:28:02;;;;;;;9.05;5.85;;;;;10.80;98118.00;;;;5066655;28;20198;-78
2020/12/29 06:30:30;;;;;;;11.05;6.55;;;;;10.80;98126.00;;;;5067975;28;20314;-78
2020/12/29 06:32:57;;;;;;;10.02;6.53;;;;;10.70;98135.00;;;;5060201;28;20203;-78
2020/12/29 06:35:24;;;;;;;10.75;6.15;;;;;10.70;98132.00;;;;5057949;28;20290;-79
2020/12/29 06:38:01;;;;;;;11.73;7.25;;;;;10.60;98138.00;;;;5060018;28;20202;-78
2020/12/29 06:40:30;;;;;;;10.55;6.47;;;;;10.70;98140.00;;;;5070414;28;20267;-78
2020/12/29 06:42:57;;;;;;;10.40;6.50;;;;;10.60;98141.00;;;;5064464;28;20201;-78
2020/12/29 06:45:24;;;;;;;10.07;6.35;;;;;10.60;98146.00;;;;5053488;28;20203;-78
2020/12/29 06:47:51;;;;;;;10.98;6.32;;;;;10.60;98145.00;;;;5068899;28;20206;-78
2020/12/29 06:50:26;;;;;;;10.20;6.72;;;;;10.50;98146.00;;;;5060210;28;20223;-78
2020/12/29 06:53:15;;;;;;;11.65;6.68;;;;;10.50;98153.00;;;;5067646;28;20675;-78
2020/12/29 06:55:45;;;;;;;10.15;6.00;;;;;10.50;98155.00;;;;5065720;28;20291;-78
2020/12/29 06:58:28;;;;;;;11.02;6.70;;;;;10.50;98159.00;;;;5063110;28;20219;-78
2020/12/29 07:01:21;;;;;;;12.30;7.18;;;;;10.40;98177.00;;;;5068056;28;20588;-78
2020/12/29 07:03:49;;;;;;;8.68;5.05;;;;;10.50;98176.00;;;;5055688;28;20229;-79
2020/12/29 07:06:16;;;;;;;10.52;6.22;;;;;10.50;98181.00;;;;5065435;28;20203;-78
2020/12/29 07:08:43;;;;;;;8.50;5.57;;;;;10.50;98186.00;;;;5058847;28;20202;-78
2020/12/29 07:11:17;;;;;;;10.68;6.68;;;;;10.40;98189.00;;;;5068435;28;20272;-78
2020/12/29 07:13:48;;;;;;;11.52;6.40;;;;;10.50;98205.00;;;;5068382;28;20737;-76
2020/12/29 07:16:21;;;;;;;9.07;5.85;;;;;10.40;98201.00;;;;5068344;28;20199;-77
2020/12/29 07:18:47;;;;;;;8.48;5.28;;;;;10.40;98208.00;;;;5060203;28;20195;-78
2020/12/29 07:21:26;;;;;;;11.02;7.05;;;;;10.30;98213.00;;;;5064303;28;20203;-77
2020/12/29 07:23:54;;;;;;;10.00;6.15;;;;;10.40;98221.00;;;;5051886;28;20198;-77
2020/12/29 07:26:23;;;;;;;9.65;6.15;;;;;10.40;98224.00;;;;5057678;28;20252;-78
2020/12/29 07:28:52;;;;;;;8.70;5.57;;;;;10.40;98220.00;;;;5053610;28;20217;-77
2020/12/29 07:31:18;;;;;;;8.38;5.72;;;;;10.40;98228.00;;;;5068909;28;20230;-78
2020/12/29 07:33:50;;;;;;;8.88;5.70;;;;;10.30;98231.00;;;;5064636;28;20353;-77
2020/12/29 07:36:21;;;;;;;9.23;5.72;;;;;10.30;98234.00;;;;5067695;28;20210;-77
2020/12/29 07:38:49;;;;;;;10.98;6.47;;;;;10.30;98242.00;;;;5064317;28;20203;-76
2020/12/29 07:41:17;;;;;;;9.00;5.82;;;;;10.30;98245.00;;;;5057448;28;20195;-78
2020/12/29 07:43:45;;;;;;;9.45;5.63;;;;;10.30;98251.00;;;;5053643;28;20211;-77
2020/12/29 07:46:12;;;;;;;10.13;6.70;;;;;10.30;98245.00;;;;5055095;28;20199;-77
2020/12/29 07:48:39;;;;;;;9.77;5.95;;;;;10.30;98262.00;;;;5055644;28;20188;-77
2020/12/29 07:51:06;;;;;;;9.10;5.90;;;;;10.30;98264.00;;;;5058064;28;20219;-77
2020/12/29 07:53:33;;;;;;;8.82;5.68;;;;;10.30;98269.00;;;;5047638;28;21025;-77
2020/12/29 07:56:00;;;;;;;9.45;6.10;;;;;10.30;98274.00;;;;5062468;28;20269;-77
2020/12/29 07:58:28;;;;;;;9.02;5.45;;;;;10.30;98279.00;;;;5062099;28;20723;-77
2020/12/29 08:00:55;;;;;;;8.25;5.15;;;;;10.30;98289.00;;;;5061713;28;20684;-78
2020/12/29 08:03:21;;;;;;;9.88;6.40;;;;;10.30;98291.00;;;;5059916;28;20199;-77
2020/12/29 08:05:48;;;;;;;8.95;5.70;;;;;10.30;98300.00;;;;5058976;28;20761;-77
2020/12/29 08:08:16;;;;;;;8.55;5.88;;;;;10.30;98302.00;;;;5048230;28;20195;-76
2020/12/29 08:10:44;;;;;;;8.07;5.28;;;;;10.30;98305.00;;;;5065347;28;20223;-77
2020/12/29 08:13:13;;;;;;;9.25;5.85;;;;;10.30;98313.00;;;;5058941;28;20206;-76
2020/12/29 08:15:42;;;;;;;9.35;5.80;;;;;10.30;98311.00;;;;5048019;28;20223;-76
2020/12/29 08:18:10;;;;;;;8.95;5.97;;;;;10.30;98315.00;;;;5056106;28;20199;-76
2020/12/29 08:20:45;;;;;;;9.50;5.88;;;;;10.20;98318.00;;;;5064229;28;20273;-77
2020/12/29 08:23:12;;;;;;;9.38;5.85;;;;;10.30;98328.00;;;;5063574;28;20563;-77
2020/12/29 08:25:39;;;;;;;9.75;6.40;;;;;10.30;98335.00;;;;5049487;28;20677;-76
2020/12/29 08:28:07;;;;;;;8.60;5.40;;;;;10.30;98336.00;;;;5061901;28;20194;-76
2020/12/29 08:30:34;;;;;;;8.80;5.57;;;;;10.30;98343.00;;;;5052645;28;20215;-76
2020/12/29 08:33:05;;;;;;;11.00;6.72;;;;;10.20;98340.00;;;;5049666;28;20199;-78
2020/12/29 08:35:42;;;;;;;7.95;4.97;;;;;10.30;98344.00;;;;5064148;28;20226;-79
2020/12/29 08:38:25;;;;;;;8.70;5.47;;;;;10.20;98346.00;;;;5062780;28;20191;-77
2020/12/29 08:41:05;;;;;;;9.27;5.75;;;;;10.20;98352.00;;;;5055265;28;20207;-77
2020/12/29 08:43:34;;;;;;;9.57;5.47;;;;;10.30;98362.00;;;;5063634;28;20206;-78
2020/12/29 08:46:02;;;;;;;7.88;4.60;;;;;10.20;98360.00;;;;5069562;28;20174;-78
2020/12/29 08:48:30;;;;;;;7.47;4.78;;;;;10.20;98370.00;;;;5060469;28;20241;-78
2020/12/29 08:50:57;;;;;;;9.52;5.57;;;;;10.20;98373.00;;;;5058426;28;20700;-79
2020/12/29 08:53:25;;;;;;;7.25;4.32;;;;;10.20;98370.00;;;;5062641;28;20210;-78
2020/12/29 08:55:52;;;;;;;8.57;5.82;;;;;10.30;98377.00;;;;5046972;28;20207;-78
2020/12/29 08:58:25;;;;;;;9.05;5.65;;;;;10.20;98376.00;;;;5047467;28;20675;-79
2020/12/29 09:00:53;;;;;;;9.18;5.45;;;;;10.30;98373.00;;;;5047745;28;20211;-80
2020/12/29 09:03:22;;;;;;;8.85;5.00;;;;;10.30;98382.00;;;;5054353;28;20199;-79
2020/12/29 09:05:51;;;;;;;9.30;5.28;;;;;10.30;98393.00;;;;5047033;28;20218;-80
2020/12/29 09:08:27;;;;;;;7.88;5.45;;;;;10.20;98392.00;;;;5051211;28;20272;-80
2020/12/29 09:11:09;;;;;;;7.97;5.00;;;;;10.30;98393.00;;;;5058760;28;20246;-79
2020/12/29 09:13:36;;;;;;;8.15;5.03;;;;;10.40;98400.00;;;;5051843;28;20230;-80
2020/12/29 09:16:12;;;;;;;9.20;5.50;;;;;10.30;98402.00;;;;5055864;28;20206;-79
2020/12/29 09:18:40;;;;;;;9.43;6.15;;;;;10.40;98407.00;;;;5052456;28;20255;-79
2020/12/29 09:21:21;;;;;;;8.85;5.60;;;;;10.40;98414.00;;;;5054037;28;20283;-78
2020/12/29 09:23:58;;;;;;;9.68;5.97;;;;;10.40;98416.00;;;;5051716;28;20203;-78
2020/12/29 09:26:24;;;;;;;10.73;6.32;;;;;10.50;98429.00;;;;5049589;28;20207;-77
2020/12/29 09:28:51;;;;;;;10.85;6.53;;;;;10.50;98429.00;;;;5050714;28;20204;-78
2020/12/29 09:31:24;;;;;;;8.00;5.28;;;;;10.50;98434.00;;;;5055129;28;20558;-78
2020/12/29 09:33:51;;;;;;;9.65;5.82;;;;;10.60;98438.00;;;;5046343;28;20230;-78
2020/12/29 09:36:23;;;;;;;9.35;6.00;;;;;10.60;98441.00;;;;5048563;28;20206;-77
2020/12/29 09:38:51;;;;;;;8.75;5.68;;;;;10.60;98441.00;;;;5054708;28;20318;-79
2020/12/29 09:41:18;;;;;;;9.00;5.90;;;;;10.60;98449.00;;;;5048120;28;20212;-80
2020/12/29 09:43:45;;;;;;;8.80;5.38;;;;;10.70;98455.00;;;;5052028;28;20658;-79
2020/12/29 09:46:12;;;;;;;7.97;5.22;;;;;10.70;98456.00;;;;5055501;28;20256;-79
2020/12/29 09:48:39;;;;;;;7.95;4.95;;;;;10.70;98458.00;;;;5061045;28;20210;-79
2020/12/29 09:51:06;;;;;;;10.65;6.68;;;;;10.80;98466.00;;;;5059963;28;20226;-79
2020/12/29 09:53:33;;;;;;;9.15;5.97;;;;;10.80;98480.00;;;;5063174;28;20206;-79
2020/12/29 09:56:00;;;;;;;8.85;5.60;;;;;10.80;98484.00;;;;5057609;28;20195;-80
2020/12/29 09:58:27;;;;;;;9.30;5.15;;;;;10.90;98486.00;;;;5058658;28;20636;-78
2020/12/29 10:00:54;;;;;;;8.18;4.85;;;;;10.90;98489.00;;;;5050606;28;21060;-80
2020/12/29 10:03:21;;;;;;;8.48;4.93;;;;;10.90;98491.00;;;;5058304;28;20202;-79
2020/12/29 10:05:49;;;;;;;9.23;5.72;;;;;11.00;98489.00;;;;5049603;28;20203;-79
2020/12/29 10:08:16;;;;;;;8.63;4.85;;;;;11.00;98489.00;;;;5051329;28;20249;-80
2020/12/29 10:10:43;;;;;;;7.45;4.60;;;;;11.10;98494.00;;;;5054788;28;20224;-78
2020/12/29 10:13:10;;;;;;;8.00;5.03;;;;;11.10;98495.00;;;;5054756;28;20206;-78
2020/12/29 10:15:37;;;;;;;8.20;5.00;;;;;11.10;98502.00;;;;5062170;28;20207;-78
2020/12/29 10:18:04;;;;;;;8.63;5.15;;;;;11.10;98507.00;;;;5058516;28;20199;-77
2020/12/29 10:20:30;;;;;;;8.00;5.03;;;;;11.20;98512.00;;;;5051836;28;20200;-78
2020/12/29 10:22:57;;;;;;;9.07;5.32;;;;;11.20;98518.00;;;;5054347;28;20292;-76
2020/12/29 10:25:24;;;;;;;8.57;5.25;;;;;11.20;98523.00;;;;5052376;28;20196;-80
2020/12/29 10:27:51;;;;;;;7.57;4.75;;;;;11.30;98525.00;;;;5057338;28;20257;-80
2020/12/29 10:30:18;;;;;;;6.60;4.53;;;;;11.30;98536.00;;;;5050294;28;20208;-80
2020/12/29 10:32:45;;;;;;;7.38;5.13;;;;;11.30;98537.00;;;;5060350;28;20222;-79
2020/12/29 10:35:12;;;;;;;7.68;4.50;;;;;11.30;98538.00;;;;5054528;28;20200;-79
2020/12/29 10:37:39;;;;;;;7.80;4.70;;;;;11.40;98547.00;;;;5063978;28;20206;-78
2020/12/29 10:40:06;;;;;;;7.15;4.78;;;;;11.40;98536.00;;;;5057304;28;20199;-78
2020/12/29 10:42:33;;;;;;;6.65;4.05;;;;;11.40;98540.00;;;;5052372;28;20199;-80
2020/12/29 10:45:01;;;;;;;7.95;5.20;;;;;11.40;98542.00;;;;5049837;28;20250;-78
2020/12/29 10:47:28;;;;;;;6.35;4.50;;;;;11.40;98541.00;;;;5053331;28;20195;-79
2020/12/29 10:49:55;;;;;;;6.85;4.43;;;;;11.40;98547.00;;;;5061063;28;20600;-78
2020/12/29 10:52:21;;;;;;;7.63;4.53;;;;;11.50;98551.00;;;;5059422;28;20227;-79
2020/12/29 10:54:48;;;;;;;6.30;3.95;;;;;11.50;98557.00;;;;5068029;28;20220;-78
2020/12/29 10:57:15;;;;;;;7.85;4.60;;;;;11.50;98549.00;;;;5066627;28;20249;-78
2020/12/29 10:59:41;;;;;;;5.45;3.85;;;;;11.50;98554.00;;;;5063882;28;20276;-79
2020/12/29 11:02:09;;;;;;;7.30;4.80;;;;;11.50;98555.00;;;;5063600;28;20199;-79
2020/12/29 11:04:36;;;;;;;6.22;4.43;;;;;11.60;98552.00;;;;5053868;28;20195;-79
2020/12/29 11:07:02;;;;;;;8.88;4.97;;;;;11.60;98560.00;;;;5051133;28;20269;-78
2020/12/29 11:09:29;;;;;;;6.00;4.45;;;;;11.60;98560.00;;;;5057504;28;20217;-79
2020/12/29 11:11:56;;;;;;;9.55;5.35;;;;;11.70;98565.00;;;;5055840;28;20227;-79
2020/12/29 11:14:23;;;;;;;7.40;4.93;;;;;11.70;98561.00;;;;5057820;28;20203;-79
2020/12/29 11:16:49;;;;;;;7.90;5.35;;;;;11.70;98567.00;;;;5063457;28;20298;-78
2020/12/29 11:19:17;;;;;;;8.85;5.55;;;;;11.70;98563.00;;;;5061755;28;20211;-77
2020/12/29 11:21:46;;;;;;;8.27;5.35;;;;;11.80;98573.00;;;;5064335;28;20257;-78
2020/12/29 11:24:13;;;;;;;7.13;5.00;;;;;11.80;98569.00;;;;5056262;28;20282;-79
2020/12/29 11:26:40;;;;;;;8.70;4.95;;;;;11.80;98573.00;;;;5049475;28;20207;-78
2020/12/29 11:29:06;;;;;;;8.98;5.82;;;;;11.90;98579.00;;;;5060378;28;20199;-79
2020/12/29 11:31:33;;;;;;;9.73;6.40;;;;;11.90;98577.00;;;;5062444;28;20227;-78
2020/12/29 11:34:00;;;;;;;8.27;5.78;;;;;11.90;98577.00;;;;5059793;28;20215;-78
2020/12/29 11:36:27;;;;;;;9.45;5.75;;;;;11.90;98570.00;;;;5060689;28;20202;-78
2020/12/29 11:38:54;;;;;;;7.95;5.22;;;;;12.00;98578.00;;;;5053105;28;20210;-79
2020/12/29 11:41:21;;;;;;;8.05;5.45;;;;;12.00;98580.00;;;;5051748;28;20214;-80
2020/12/29 11:43:47;;;;;;;9.55;6.35;;;;;12.00;98580.00;;;;5048188;28;20242;-80
2020/12/29 11:46:14;;;;;;;11.48;7.45;;;;;12.00;98576.00;;;;5049404;28;20260;-79
2020/12/29 11:48:41;;;;;;;10.43;7.82;;;;;12.00;98574.00;;;;5055272;28;20210;-79
2020/12/29 11:51:09;;;;;;;11.95;8.25;;;;;12.00;98580.00;;;;5053432;28;20223;-80
2020/12/29 11:53:37;;;;;;;12.50;8.82;;;;;11.90;98585.00;;;;5050716;28;20631;-80
2020/12/29 11:56:04;;;;;;;14.10;8.80;;;;;12.00;98592.00;;;;5054717;28;20196;-80
2020/12/29 11:58:31;;;;;;;11.88;8.52;;;;;12.00;98596.00;;;;5058162;28;20234;-79
2020/12/29 12:00:58;;;;;;;11.45;7.45;;;;;11.90;98597.00;;;;5053912;28;20206;-80
2020/12/29 12:03:25;;;;;;;11.38;7.93;;;;;11.90;98606.00;;;;5058602;28;20202;-79
2020/12/29 12:05:52;;;;;;;11.75;8.23;;;;;11.90;98605.00;;;;5062476;28;20260;-79
2020/12/29 12:08:19;;;;;;;13.25;8.48;;;;;11.90;98611.00;;;;5054507;28;20211;-78
2020/12/29 12:10:46;;;;;;;11.38;8.55;;;;;11.90;98615.00;;;;5061220;28;20222;-78
2020/12/29 12:13:13;;;;;;;10.10;7.40;;;;;11.90;98619.00;;;;5051753;28;20210;-77
2020/12/29 12:15:40;;;;;;;9.85;6.97;;;;;11.90;98625.00;;;;5051211;28;20199;-78
2020/12/29 12:18:06;;;;;;;11.35;7.30;;;;;11.90;98630.00;;;;5058646;28;20210;-79
2020/12/29 12:20:33;;;;;;;10.02;7.05;;;;;11.90;98631.00;;;;5048656;28;20227;-80